Time,TemperatureF,DewpointF,PressureIn,WindDirection,WindDirectionDegrees,WindSpeedMPH,WindSpeedGustMPH,Humidity,HourlyPrecipIn,Conditions,Clouds,dailyrainin,SoftwareType,DateUTC
2013-03-20 00:00:00,37.0,30.8,29.76,NNW,338,0.0,0.0,78,0.00,,---,0.58,VWS V14.01,2013-03-20 07:00:00,
2013-03-20 00:04:00,42.6,22.8,29.79,East,90,0.0,0.0,45,0.00,,---,0.00,VWS V14.01,2013-03-20 07:04:00,
2013-03-20 00:09:00,42.4,23.1,29.79,ESE,112,0.0,0.0,46,0.00,,---,0.00,VWS V14.01,2013-03-20 07:09:00,
2013-03-20 00:14:00,42.1,23.8,29.79,ESE,112,0.0,0.0,48,0.00,,---,0.00,VWS V14.01,2013-03-20 07:14:00,
2013-03-20 00:19:00,42.1,24.3,29.79,East,90,1.1,1.1,49,0.00,,---,0.00,VWS V14.01,2013-03-20 07:19:00,
2013-03-20 00:24:00,41.9,25.6,29.76,SSE,158,0.0,0.0,52,0.00,,---,0.00,VWS V14.01,2013-03-20 07:24:00,
2013-03-20 00:29:00,41.7,25.9,29.76,SSE,158,3.1,3.1,53,0.00,,---,0.00,VWS V14.01,2013-03-20 07:29:00,
2013-03-20 00:34:00,41.7,25.9,29.76,East,90,2.0,2.0,53,0.00,,---,0.00,VWS V14.01,2013-03-20 07:34:00,
2013-03-20 00:39:00,41.2,25.8,29.76,NE,45,0.0,0.0,54,0.00,,---,0.00,VWS V14.01,2013-03-20 07:39:00,
2013-03-20 00:44:00,40.6,28.6,29.76,ENE,68,0.0,0.0,62,0.00,,---,0.00,VWS V14.01,2013-03-20 07:44:00,
2013-03-20 00:49:00,40.3,28.7,29.76,East,90,0.0,0.0,63,0.00,,---,0.00,VWS V14.01,2013-03-20 07:49:00,
2013-03-20 00:54:00,40.1,29.3,29.76,East,90,0.0,0.0,65,0.00,,---,0.00,VWS V14.01,2013-03-20 07:54:00,
2013-03-20 01:00:00,39.9,29.5,29.76,ESE,112,0.9,0.9,66,0.00,,---,0.00,VWS V14.01,2013-03-20 08:00:00,
2013-03-20 01:05:00,39.9,30.6,29.76,SE,135,0.0,0.0,69,0.00,,---,0.00,VWS V14.01,2013-03-20 08:05:00,
2013-03-20 01:10:00,39.9,31.6,29.76,ESE,112,0.0,0.0,72,0.00,,---,0.00,VWS V14.01,2013-03-20 08:10:00,
2013-03-20 01:15:00,39.7,31.5,29.76,East,90,0.0,0.0,72,0.00,,---,0.00,VWS V14.01,2013-03-20 08:15:00,
2013-03-20 01:20:00,39.7,31.5,29.76,East,90,0.0,0.0,72,0.00,,---,0.00,VWS V14.01,2013-03-20 08:20:00,
2013-03-20 01:25:00,39.7,31.8,29.76,East,90,0.0,0.0,73,0.00,,---,0.00,VWS V14.01,2013-03-20 08:25:00,
2013-03-20 01:30:00,39.7,32.1,29.76,East,90,0.0,0.0,74,0.00,,---,0.00,VWS V14.01,2013-03-20 08:30:00,
2013-03-20 01:35:00,39.7,32.8,29.76,East,90,0.0,0.0,76,0.00,,---,0.00,VWS V14.01,2013-03-20 08:35:00,
2013-03-20 01:40:00,39.7,33.5,29.74,East,90,0.0,0.0,78,0.00,,---,0.00,VWS V14.01,2013-03-20 08:40:00,
2013-03-20 01:45:00,39.9,33.6,29.74,ENE,68,0.0,0.0,78,0.04,,---,0.04,VWS V14.01,2013-03-20 08:45:00,
2013-03-20 01:50:00,40.1,33.8,29.74,ENE,68,0.0,0.0,78,0.04,,---,0.04,VWS V14.01,2013-03-20 08:50:00,
2013-03-20 01:55:00,40.3,35.5,29.74,East,90,1.3,1.3,83,0.04,,---,0.04,VWS V14.01,2013-03-20 08:55:00,
2013-03-20 02:00:00,40.5,36.3,29.74,East,90,1.6,1.6,85,0.04,,---,0.04,VWS V14.01,2013-03-20 09:00:00,
2013-03-20 02:06:00,40.6,36.5,29.74,SSE,158,0.9,0.9,85,0.04,,---,0.04,VWS V14.01,2013-03-20 09:06:00,
2013-03-20 02:11:00,40.8,36.7,29.71,SSW,202,1.6,1.6,85,0.04,,---,0.04,VWS V14.01,2013-03-20 09:11:00,
2013-03-20 02:16:00,40.8,36.7,29.71,ESE,112,0.0,0.0,85,0.04,,---,0.04,VWS V14.01,2013-03-20 09:16:00,
2013-03-20 02:21:00,40.8,37.0,29.71,South,180,1.6,1.6,86,0.04,,---,0.04,VWS V14.01,2013-03-20 09:21:00,
2013-03-20 02:26:00,40.6,37.1,29.71,ESE,112,2.7,2.7,87,0.04,,---,0.04,VWS V14.01,2013-03-20 09:26:00,
2013-03-20 02:31:00,40.5,37.2,29.71,ESE,112,3.8,3.8,88,0.04,,---,0.04,VWS V14.01,2013-03-20 09:31:00,
2013-03-20 02:36:00,40.5,36.9,29.71,ENE,68,3.4,3.4,87,0.04,,---,0.04,VWS V14.01,2013-03-20 09:36:00,
2013-03-20 02:41:00,40.3,36.7,29.71,ESE,112,3.4,3.4,87,0.04,,---,0.04,VWS V14.01,2013-03-20 09:41:00,
2013-03-20 02:46:00,40.3,36.7,29.71,ESE,112,2.0,2.0,87,0.04,,---,0.04,VWS V14.01,2013-03-20 09:46:00,
2013-03-20 02:52:00,40.3,36.7,29.71,South,180,1.6,1.6,87,0.00,,---,0.04,VWS V14.01,2013-03-20 09:52:00,
2013-03-20 02:57:00,40.3,36.7,29.71,South,180,2.9,2.9,87,0.00,,---,0.04,VWS V14.01,2013-03-20 09:57:00,
2013-03-20 03:02:00,40.3,36.7,29.71,East,90,2.5,2.5,87,0.00,,---,0.04,VWS V14.01,2013-03-20 10:02:00,
2013-03-20 03:07:00,40.3,36.7,29.71,ESE,112,2.2,2.2,87,0.00,,---,0.04,VWS V14.01,2013-03-20 10:07:00,
2013-03-20 03:12:00,40.1,36.8,29.71,ESE,112,2.2,2.2,88,0.00,,---,0.04,VWS V14.01,2013-03-20 10:12:00,
2013-03-20 03:17:00,40.1,36.5,29.71,East,90,0.0,0.0,87,0.00,,---,0.04,VWS V14.01,2013-03-20 10:17:00,
2013-03-20 03:22:00,40.1,36.3,29.71,East,90,0.0,0.0,86,0.00,,---,0.04,VWS V14.01,2013-03-20 10:22:00,
2013-03-20 03:27:00,40.1,36.5,29.68,ENE,68,0.0,0.0,87,0.00,,---,0.04,VWS V14.01,2013-03-20 10:27:00,
2013-03-20 03:32:00,40.1,36.3,29.68,SE,135,4.3,4.3,86,0.00,,---,0.04,VWS V14.01,2013-03-20 10:32:00,
2013-03-20 03:37:00,40.5,37.5,29.68,East,90,1.6,1.6,89,0.00,,---,0.04,VWS V14.01,2013-03-20 10:37:00,
2013-03-20 03:42:00,40.5,37.5,29.71,East,90,0.0,0.0,89,0.00,,---,0.04,VWS V14.01,2013-03-20 10:42:00,
2013-03-20 03:47:00,40.6,37.7,29.71,East,90,0.0,0.0,89,0.00,,---,0.04,VWS V14.01,2013-03-20 10:47:00,
2013-03-20 03:52:00,40.6,37.4,29.71,East,90,0.0,0.0,88,0.00,,---,0.04,VWS V14.01,2013-03-20 10:52:00,
2013-03-20 03:57:00,40.6,37.1,29.71,ENE,68,0.0,0.0,87,0.00,,---,0.04,VWS V14.01,2013-03-20 10:57:00,
2013-03-20 04:02:00,40.8,37.5,29.71,North,0,0.0,0.0,88,0.00,,---,0.04,VWS V14.01,2013-03-20 11:02:00,
2013-03-20 04:08:00,41.0,37.7,29.71,East,90,0.0,0.0,88,0.00,,---,0.04,VWS V14.01,2013-03-20 11:08:00,
2013-03-20 04:13:00,41.0,37.7,29.71,ESE,112,0.0,0.0,88,0.05,,---,0.09,VWS V14.01,2013-03-20 11:13:00,
2013-03-20 04:18:00,41.2,38.5,29.71,South,180,0.0,0.0,90,0.05,,---,0.09,VWS V14.01,2013-03-20 11:18:00,
2013-03-20 04:23:00,41.2,38.5,29.71,ENE,68,0.0,0.0,90,0.05,,---,0.09,VWS V14.01,2013-03-20 11:23:00,
2013-03-20 04:36:00,41.4,38.9,29.68,East,90,0.0,0.0,91,0.05,,---,0.09,VWS V14.01,2013-03-20 11:36:00,
2013-03-20 04:42:00,41.4,38.9,29.65,ENE,68,0.0,0.0,91,0.05,,---,0.09,VWS V14.01,2013-03-20 11:42:00,
2013-03-20 04:47:00,41.4,38.7,29.65,NNE,22,0.0,0.0,90,0.05,,---,0.09,VWS V14.01,2013-03-20 11:47:00,
2013-03-20 04:52:00,41.4,38.7,29.65,ENE,68,0.0,0.0,90,0.05,,---,0.09,VWS V14.01,2013-03-20 11:52:00,
2013-03-20 04:57:00,41.4,38.7,29.62,ENE,68,0.0,0.0,90,0.09,,---,0.13,VWS V14.01,2013-03-20 11:57:00,
2013-03-20 05:02:00,41.4,38.7,29.62,NE,45,0.0,0.0,90,0.09,,---,0.13,VWS V14.01,2013-03-20 12:02:00,
2013-03-20 05:07:00,41.5,38.8,29.62,NE,45,0.0,0.0,90,0.09,,---,0.13,VWS V14.01,2013-03-20 12:07:00,
2013-03-20 05:12:00,41.5,39.4,29.65,East,90,3.4,3.4,92,0.09,,---,0.13,VWS V14.01,2013-03-20 12:12:00,
2013-03-20 05:17:00,41.7,39.8,29.65,North,0,2.2,2.2,93,0.04,,---,0.13,VWS V14.01,2013-03-20 12:17:00,
2013-03-20 05:22:00,41.7,39.8,29.65,ENE,68,0.0,0.0,93,0.04,,---,0.13,VWS V14.01,2013-03-20 12:22:00,
2013-03-20 05:28:00,42.1,40.5,29.62,WNW,292,3.6,3.6,94,0.04,,---,0.13,VWS V14.01,2013-03-20 12:28:00,
2013-03-20 05:33:00,41.7,40.1,29.62,East,90,0.0,0.0,94,0.04,,---,0.13,VWS V14.01,2013-03-20 12:33:00,
2013-03-20 05:38:00,41.9,40.3,29.62,East,90,1.3,1.3,94,0.04,,---,0.13,VWS V14.01,2013-03-20 12:38:00,
2013-03-20 05:43:00,41.9,40.3,29.62,East,90,1.6,1.6,94,0.04,,---,0.13,VWS V14.01,2013-03-20 12:43:00,
2013-03-20 05:48:00,42.1,40.8,29.62,East,90,0.0,0.0,95,0.04,,---,0.13,VWS V14.01,2013-03-20 12:48:00,
2013-03-20 05:53:00,42.1,40.8,29.62,East,90,2.2,2.2,95,0.04,,---,0.13,VWS V14.01,2013-03-20 12:53:00,
2013-03-20 05:58:00,42.1,40.8,29.62,ENE,68,0.9,0.9,95,0.04,,---,0.13,VWS V14.01,2013-03-20 12:58:00,
2013-03-20 06:03:00,42.1,40.8,29.62,NNE,22,0.0,0.0,95,0.00,,---,0.13,VWS V14.01,2013-03-20 13:03:00,
2013-03-20 06:08:00,42.3,40.9,29.62,NE,45,0.9,0.9,95,0.00,,---,0.13,VWS V14.01,2013-03-20 13:08:00,
2013-03-20 06:13:00,42.3,40.9,29.62,ESE,112,2.5,2.5,95,0.00,,---,0.13,VWS V14.01,2013-03-20 13:13:00,
2013-03-20 06:18:00,42.3,40.9,29.62,NNE,22,0.0,0.0,95,0.00,,---,0.13,VWS V14.01,2013-03-20 13:18:00,
2013-03-20 06:23:00,42.3,40.7,29.62,East,90,0.0,0.0,94,0.00,,---,0.13,VWS V14.01,2013-03-20 13:23:00,
2013-03-20 06:28:00,42.3,40.7,29.59,East,90,1.3,1.3,94,0.00,,---,0.09,VWS V14.01,2013-03-20 13:28:00,
2013-03-20 06:33:00,42.4,40.8,29.59,ENE,68,0.0,0.0,94,0.00,,---,0.13,VWS V14.01,2013-03-20 13:33:00,
2013-03-20 06:38:00,42.4,40.8,29.59,East,90,1.3,1.3,94,0.00,,---,0.13,VWS V14.01,2013-03-20 13:38:00,
2013-03-20 06:44:00,42.6,40.7,29.59,SE,135,1.3,1.3,93,0.00,,---,0.13,VWS V14.01,2013-03-20 13:44:00,
2013-03-20 06:49:00,42.8,40.4,29.59,ESE,112,1.1,1.1,91,0.00,,---,0.13,VWS V14.01,2013-03-20 13:49:00,
2013-03-20 06:54:00,42.8,40.4,29.59,NNE,22,2.5,2.5,91,0.00,,---,0.13,VWS V14.01,2013-03-20 13:54:00,
2013-03-20 06:59:00,43.0,40.5,29.56,ESE,112,2.7,2.7,91,0.00,,---,0.13,VWS V14.01,2013-03-20 13:59:00,
2013-03-20 07:04:00,43.0,40.5,29.56,South,180,3.4,3.4,91,0.00,,---,0.13,VWS V14.01,2013-03-20 14:04:00,
2013-03-20 07:09:00,43.2,41.0,29.59,SSE,158,4.9,4.9,92,0.00,,---,0.13,VWS V14.01,2013-03-20 14:09:00,
2013-03-20 07:14:00,43.2,41.0,29.59,SE,135,2.5,2.5,92,0.00,,---,0.13,VWS V14.01,2013-03-20 14:14:00,
2013-03-20 07:19:00,43.2,41.0,29.59,ENE,68,1.6,1.6,92,0.00,,---,0.13,VWS V14.01,2013-03-20 14:19:00,
2013-03-20 07:24:00,43.2,41.3,29.56,ESE,112,4.3,4.3,93,0.00,,---,0.13,VWS V14.01,2013-03-20 14:24:00,
2013-03-20 07:29:00,43.2,41.3,29.56,ESE,112,2.9,2.9,93,0.00,,---,0.13,VWS V14.01,2013-03-20 14:29:00,
2013-03-20 07:34:00,43.2,41.5,29.56,East,90,2.0,2.0,94,0.04,,---,0.17,VWS V14.01,2013-03-20 14:34:00,
2013-03-20 07:39:00,43.2,41.5,29.59,SE,135,2.5,2.5,94,0.04,,---,0.17,VWS V14.01,2013-03-20 14:39:00,
2013-03-20 07:44:00,43.3,41.7,29.59,ESE,112,3.6,3.6,94,0.04,,---,0.17,VWS V14.01,2013-03-20 14:44:00,
2013-03-20 07:49:00,43.5,41.9,29.59,ESE,112,1.6,1.6,94,0.04,,---,0.17,VWS V14.01,2013-03-20 14:49:00,
2013-03-20 07:54:00,43.5,41.9,29.59,ESE,112,2.5,2.5,94,0.04,,---,0.17,VWS V14.01,2013-03-20 14:54:00,
2013-03-20 07:59:00,43.7,41.8,29.59,SW,225,4.0,4.0,93,0.04,,---,0.17,VWS V14.01,2013-03-20 14:59:00,
2013-03-20 08:04:00,43.7,41.8,29.59,South,180,3.6,3.6,93,0.04,,---,0.17,VWS V14.01,2013-03-20 15:04:00,
2013-03-20 08:09:00,43.7,41.8,29.56,SSW,202,3.6,3.6,93,0.04,,---,0.17,VWS V14.01,2013-03-20 15:09:00,
2013-03-20 08:14:00,43.7,41.8,29.56,SSE,158,6.0,6.0,93,0.04,,---,0.17,VWS V14.01,2013-03-20 15:14:00,
2013-03-20 08:20:00,43.9,42.0,29.56,SSW,202,2.2,2.2,93,0.04,,---,0.17,VWS V14.01,2013-03-20 15:20:00,
2013-03-20 08:25:00,44.1,42.2,29.53,SSE,158,5.4,5.4,93,0.04,,---,0.17,VWS V14.01,2013-03-20 15:25:00,
2013-03-20 08:30:00,44.1,42.2,29.53,ESE,112,2.0,2.0,93,0.04,,---,0.17,VWS V14.01,2013-03-20 15:30:00,
2013-03-20 08:35:00,44.2,42.1,29.53,ESE,112,3.6,3.6,92,0.04,,---,0.17,VWS V14.01,2013-03-20 15:35:00,
2013-03-20 08:40:00,44.2,42.1,29.53,South,180,3.6,3.6,92,0.00,,---,0.17,VWS V14.01,2013-03-20 15:40:00,
2013-03-20 08:45:00,44.6,42.4,29.53,ESE,112,3.6,3.6,92,0.00,,---,0.17,VWS V14.01,2013-03-20 15:45:00,
2013-03-20 08:50:00,44.8,42.6,29.53,SSW,202,3.6,3.6,92,0.00,,---,0.17,VWS V14.01,2013-03-20 15:50:00,
2013-03-20 08:55:00,45.0,42.8,29.53,NNE,22,2.7,2.7,92,0.00,,---,0.17,VWS V14.01,2013-03-20 15:55:00,
2013-03-20 09:00:00,45.1,43.0,29.53,SSW,202,4.0,4.0,92,0.00,,---,0.17,VWS V14.01,2013-03-20 16:00:00,
2013-03-20 09:05:00,45.0,42.5,29.53,ESE,112,2.5,2.5,91,0.00,,---,0.17,VWS V14.01,2013-03-20 16:05:00,
2013-03-20 09:10:00,45.1,43.0,29.53,ESE,112,2.2,2.2,92,0.00,,---,0.17,VWS V14.01,2013-03-20 16:10:00,
2013-03-20 09:15:00,45.3,43.1,29.53,East,90,2.7,2.7,92,0.00,,---,0.17,VWS V14.01,2013-03-20 16:15:00,
2013-03-20 09:20:00,45.3,43.1,29.53,SSE,158,4.9,4.9,92,0.04,,---,0.21,VWS V14.01,2013-03-20 16:20:00,
2013-03-20 09:25:00,45.5,43.3,29.56,SSW,202,1.3,1.3,92,0.04,,---,0.21,VWS V14.01,2013-03-20 16:25:00,
2013-03-20 09:30:00,45.9,43.4,29.56,SSE,158,4.0,4.0,91,0.04,,---,0.21,VWS V14.01,2013-03-20 16:30:00,
2013-03-20 09:35:00,46.2,43.7,29.56,East,90,3.8,3.8,91,0.04,,---,0.21,VWS V14.01,2013-03-20 16:35:00,
2013-03-20 09:40:00,46.9,44.5,29.53,SSE,158,2.9,2.9,91,0.04,,---,0.21,VWS V14.01,2013-03-20 16:40:00,
2013-03-20 09:45:00,46.9,43.3,29.53,East,90,3.1,3.1,87,0.04,,---,0.21,VWS V14.01,2013-03-20 16:45:00,
2013-03-20 09:50:00,47.3,43.6,29.53,ENE,68,0.0,0.0,87,0.04,,---,0.21,VWS V14.01,2013-03-20 16:50:00,
2013-03-20 09:55:00,46.6,42.6,29.53,NNE,22,8.1,8.1,86,0.04,,---,0.21,VWS V14.01,2013-03-20 16:55:00,
2013-03-20 10:00:00,46.4,43.0,29.53,SW,225,3.8,3.8,88,0.04,,---,0.21,VWS V14.01,2013-03-20 17:00:00,
2013-03-20 10:05:00,46.4,43.0,29.53,SSE,158,2.7,2.7,88,0.04,,---,0.21,VWS V14.01,2013-03-20 17:05:00,
2013-03-20 10:10:00,46.6,43.2,29.53,East,90,0.0,0.0,88,0.04,,---,0.21,VWS V14.01,2013-03-20 17:10:00,
2013-03-20 10:15:00,47.8,44.5,29.53,East,90,4.9,4.9,88,0.04,,---,0.21,VWS V14.01,2013-03-20 17:15:00,
2013-03-20 10:20:00,50.0,47.2,29.53,SSE,158,5.8,5.8,90,0.00,,---,0.21,VWS V14.01,2013-03-20 17:20:00,
2013-03-20 10:25:00,50.2,44.6,29.50,South,180,4.7,4.7,81,0.00,,---,0.21,VWS V14.01,2013-03-20 17:25:00,
2013-03-20 10:30:00,49.5,43.2,29.50,SE,135,3.1,3.1,79,0.00,,---,0.21,VWS V14.01,2013-03-20 17:30:00,
2013-03-20 10:35:00,48.7,42.5,29.50,South,180,5.4,5.4,79,0.00,,---,0.21,VWS V14.01,2013-03-20 17:35:00,
2013-03-20 10:41:00,48.7,42.9,29.50,North,0,4.0,4.0,80,0.00,,---,0.21,VWS V14.01,2013-03-20 17:41:00,
2013-03-20 10:46:00,51.4,48.0,29.50,NNW,338,0.0,0.0,88,0.00,,---,0.21,VWS V14.01,2013-03-20 17:46:00,
2013-03-20 10:51:00,50.7,44.1,29.50,East,90,3.6,3.6,78,0.00,,---,0.21,VWS V14.01,2013-03-20 17:51:00,
2013-03-20 10:56:00,50.0,44.1,29.50,SE,135,2.7,2.7,80,0.00,,---,0.21,VWS V14.01,2013-03-20 17:56:00,
2013-03-20 11:01:00,49.5,43.9,29.50,NNW,338,3.4,3.4,81,0.00,,---,0.21,VWS V14.01,2013-03-20 18:01:00,
2013-03-20 11:06:00,49.8,44.2,29.50,East,90,0.9,0.9,81,0.00,,---,0.21,VWS V14.01,2013-03-20 18:06:00,
2013-03-20 11:11:00,51.3,46.3,29.50,ESE,112,2.9,2.9,83,0.00,,---,0.21,VWS V14.01,2013-03-20 18:11:00,
2013-03-20 11:16:00,51.3,45.3,29.50,SSE,158,4.3,4.3,80,0.00,,---,0.21,VWS V14.01,2013-03-20 18:16:00,
2013-03-20 11:21:00,50.5,43.6,29.50,ESE,112,3.1,3.1,77,0.00,,---,0.21,VWS V14.01,2013-03-20 18:21:00,
2013-03-20 11:27:00,50.0,42.7,29.50,SE,135,2.9,2.9,76,0.00,,---,0.21,VWS V14.01,2013-03-20 18:27:00,
2013-03-20 11:32:00,49.6,43.4,29.50,SSW,202,1.6,1.6,79,0.00,,---,0.21,VWS V14.01,2013-03-20 18:32:00,
2013-03-20 11:37:00,50.5,44.9,29.50,SE,135,2.2,2.2,81,0.00,,---,0.21,VWS V14.01,2013-03-20 18:37:00,
2013-03-20 11:42:00,51.6,45.7,29.47,East,90,1.3,1.3,80,0.00,,---,0.21,VWS V14.01,2013-03-20 18:42:00,
2013-03-20 11:47:00,52.3,46.0,29.47,SE,135,2.0,2.0,79,0.00,,---,0.21,VWS V14.01,2013-03-20 18:47:00,
2013-03-20 11:52:00,53.4,46.7,29.47,ESE,112,1.6,1.6,78,0.00,,---,0.21,VWS V14.01,2013-03-20 18:52:00,
2013-03-20 11:57:00,55.2,47.1,29.47,NNE,22,2.0,2.0,74,0.00,,---,0.21,VWS V14.01,2013-03-20 18:57:00,
2013-03-20 12:02:00,56.7,47.4,29.47,ESE,112,4.7,4.7,71,0.00,,---,0.21,VWS V14.01,2013-03-20 19:02:00,
2013-03-20 12:07:00,56.3,45.5,29.47,South,180,4.3,4.3,67,0.00,,---,0.21,VWS V14.01,2013-03-20 19:07:00,
2013-03-20 12:12:00,56.3,46.7,29.44,South,180,7.8,7.8,70,0.00,,---,0.21,VWS V14.01,2013-03-20 19:12:00,
2013-03-20 12:18:00,56.8,47.5,29.44,NE,45,1.1,1.1,71,0.00,,---,0.21,VWS V14.01,2013-03-20 19:18:00,
2013-03-20 12:23:00,57.6,45.9,29.44,ESE,112,4.3,4.3,65,0.00,,---,0.21,VWS V14.01,2013-03-20 19:23:00,
2013-03-20 12:28:00,57.6,45.5,29.50,East,90,1.3,1.3,64,0.00,,---,0.21,VWS V14.01,2013-03-20 19:28:00,
2013-03-20 12:33:00,57.2,43.0,29.50,NNE,22,0.0,0.0,59,0.00,,---,0.21,VWS V14.01,2013-03-20 19:33:00,
2013-03-20 12:38:00,56.3,45.9,29.50,East,90,0.0,0.0,68,0.00,,---,0.21,VWS V14.01,2013-03-20 19:38:00,
2013-03-20 12:43:00,55.8,46.1,29.47,North,0,0.0,0.0,70,0.00,,---,0.21,VWS V14.01,2013-03-20 19:43:00,
2013-03-20 12:48:00,55.2,46.7,29.47,East,90,3.4,3.4,73,0.00,,---,0.21,VWS V14.01,2013-03-20 19:48:00,
2013-03-20 12:53:00,56.3,49.2,29.47,East,90,1.1,1.1,77,0.00,,---,0.21,VWS V14.01,2013-03-20 19:53:00,
2013-03-20 12:58:00,56.8,50.1,29.44,East,90,0.0,0.0,78,0.00,,---,0.21,VWS V14.01,2013-03-20 19:58:00,
2013-03-20 13:03:00,56.8,49.4,29.44,ENE,68,0.0,0.0,76,0.00,,---,0.21,VWS V14.01,2013-03-20 20:03:00,
2013-03-20 13:08:00,56.5,48.3,29.44,North,0,3.4,3.4,74,0.00,,---,0.21,VWS V14.01,2013-03-20 20:08:00,
2013-03-20 13:13:00,52.0,42.1,29.47,ENE,68,2.5,2.5,69,0.08,,---,0.29,VWS V14.01,2013-03-20 20:13:00,
2013-03-20 13:18:00,47.5,39.3,29.47,WNW,292,2.2,2.2,73,0.21,,---,0.42,VWS V14.01,2013-03-20 20:18:00,
2013-03-20 13:23:00,46.9,40.1,29.47,NNW,338,0.0,0.0,77,0.25,,---,0.46,VWS V14.01,2013-03-20 20:23:00,
2013-03-20 13:28:00,46.2,41.3,29.47,North,0,0.0,0.0,83,0.25,,---,0.46,VWS V14.01,2013-03-20 20:28:00,
2013-03-20 13:33:00,46.2,42.3,29.47,NE,45,0.0,0.0,86,0.25,,---,0.46,VWS V14.01,2013-03-20 20:33:00,
2013-03-20 13:38:00,46.0,43.0,29.47,East,90,1.1,1.1,89,0.25,,---,0.46,VWS V14.01,2013-03-20 20:38:00,
2013-03-20 13:44:00,46.4,43.9,29.47,East,90,0.0,0.0,91,0.25,,---,0.46,VWS V14.01,2013-03-20 20:44:00,
2013-03-20 13:49:00,46.8,44.8,29.47,North,0,0.0,0.0,93,0.25,,---,0.46,VWS V14.01,2013-03-20 20:49:00,
2013-03-20 13:54:00,47.3,45.9,29.47,NE,45,5.4,5.4,95,0.25,,---,0.46,VWS V14.01,2013-03-20 20:54:00,
2013-03-20 13:59:00,47.5,46.4,29.47,ENE,68,0.0,0.0,96,0.25,,---,0.46,VWS V14.01,2013-03-20 20:59:00,
2013-03-20 14:04:00,47.7,46.6,29.47,South,180,2.2,2.2,96,0.25,,---,0.46,VWS V14.01,2013-03-20 21:04:00,
2013-03-20 14:09:00,47.7,46.6,29.44,NE,45,0.0,0.0,96,0.25,,---,0.46,VWS V14.01,2013-03-20 21:09:00,
2013-03-20 14:14:00,47.7,46.6,29.44,ENE,68,0.0,0.0,96,0.25,,---,0.46,VWS V14.01,2013-03-20 21:14:00,
2013-03-20 14:19:00,47.7,46.3,29.44,East,90,0.0,0.0,95,0.04,,---,0.46,VWS V14.01,2013-03-20 21:19:00,
2013-03-20 14:24:00,47.7,46.3,29.47,NE,45,0.0,0.0,95,0.00,,---,0.46,VWS V14.01,2013-03-20 21:24:00,
2013-03-20 14:29:00,47.7,46.0,29.47,West,270,0.0,0.0,94,0.00,,---,0.46,VWS V14.01,2013-03-20 21:29:00,
2013-03-20 14:34:00,47.7,46.0,29.47,ENE,68,0.0,0.0,94,0.00,,---,0.46,VWS V14.01,2013-03-20 21:34:00,
2013-03-20 14:39:00,47.7,46.0,29.47,NW,315,2.9,2.9,94,0.00,,---,0.46,VWS V14.01,2013-03-20 21:39:00,
2013-03-20 14:44:00,47.5,45.6,29.47,SSW,202,1.3,1.3,93,0.00,,---,0.46,VWS V14.01,2013-03-20 21:44:00,
2013-03-20 14:49:00,47.5,45.3,29.47,East,90,0.0,0.0,92,0.00,,---,0.46,VWS V14.01,2013-03-20 21:49:00,
2013-03-20 14:54:00,48.4,46.5,29.47,East,90,0.0,0.0,93,0.00,,---,0.46,VWS V14.01,2013-03-20 21:54:00,
2013-03-20 14:59:00,48.7,46.5,29.47,ESE,112,2.0,2.0,92,0.00,,---,0.46,VWS V14.01,2013-03-20 21:59:00,
2013-03-20 15:04:00,48.6,44.9,29.47,ESE,112,2.0,2.0,87,0.00,,---,0.46,VWS V14.01,2013-03-20 22:04:00,
2013-03-20 15:10:00,48.4,44.4,29.50,North,0,2.9,2.9,86,0.00,,---,0.46,VWS V14.01,2013-03-20 22:10:00,
2013-03-20 15:15:00,48.4,45.0,29.50,West,270,4.0,4.0,88,0.00,,---,0.46,VWS V14.01,2013-03-20 22:15:00,
2013-03-20 15:20:00,48.4,44.7,29.50,SE,135,3.8,3.8,87,0.00,,---,0.46,VWS V14.01,2013-03-20 22:20:00,
2013-03-20 15:25:00,48.0,43.7,29.50,West,270,1.6,1.6,85,0.00,,---,0.46,VWS V14.01,2013-03-20 22:25:00,
2013-03-20 15:30:00,48.6,44.9,29.50,SE,135,3.4,3.4,87,0.00,,---,0.46,VWS V14.01,2013-03-20 22:30:00,
2013-03-20 15:35:00,48.7,44.8,29.50,NNW,338,2.0,2.0,86,0.00,,---,0.46,VWS V14.01,2013-03-20 22:35:00,
2013-03-20 15:40:00,48.7,44.4,29.50,NE,45,2.7,2.7,85,0.00,,---,0.09,VWS V14.01,2013-03-20 22:40:00,
2013-03-20 15:45:00,48.6,44.0,29.50,East,90,3.6,3.6,84,0.00,,---,0.46,VWS V14.01,2013-03-20 22:45:00,
2013-03-20 15:50:00,48.7,44.1,29.50,ESE,112,2.0,2.0,84,0.00,,---,0.46,VWS V14.01,2013-03-20 22:50:00,
2013-03-20 15:55:00,48.9,44.0,29.50,East,90,0.9,0.9,83,0.00,,---,0.46,VWS V14.01,2013-03-20 22:55:00,
2013-03-20 16:00:00,48.7,44.1,29.50,NNW,338,3.1,3.1,84,0.00,,---,0.46,VWS V14.01,2013-03-20 23:00:00,
2013-03-20 16:05:00,48.9,44.3,29.50,East,90,3.1,3.1,84,0.00,,---,0.46,VWS V14.01,2013-03-20 23:05:00,
2013-03-20 16:10:00,48.9,44.6,29.50,NNW,338,1.6,1.6,85,0.00,,---,0.46,VWS V14.01,2013-03-20 23:10:00,
2013-03-20 16:15:00,48.9,44.0,29.50,North,0,2.2,2.2,83,0.00,,---,0.46,VWS V14.01,2013-03-20 23:15:00,
2013-03-20 16:20:00,48.9,43.7,29.50,South,180,2.5,2.5,82,0.00,,---,0.46,VWS V14.01,2013-03-20 23:20:00,
2013-03-20 16:25:00,48.7,44.1,29.50,NNE,22,2.7,2.7,84,0.00,,---,0.46,VWS V14.01,2013-03-20 23:25:00,
2013-03-20 16:30:00,48.6,44.0,29.50,East,90,2.0,2.0,84,0.00,,---,0.46,VWS V14.01,2013-03-20 23:30:00,
2013-03-20 16:36:00,47.5,42.9,29.50,North,0,1.6,1.6,84,0.00,,---,0.46,VWS V14.01,2013-03-20 23:36:00,
2013-03-20 16:41:00,45.9,40.7,29.56,North,0,4.0,4.0,82,0.04,,---,0.50,VWS V14.01,2013-03-20 23:41:00,
2013-03-20 16:46:00,42.4,35.4,29.56,NNW,338,2.5,2.5,76,0.08,,---,0.54,VWS V14.01,2013-03-20 23:46:00,
2013-03-20 16:51:00,42.1,35.7,29.56,East,90,1.6,1.6,78,0.08,,---,0.54,VWS V14.01,2013-03-20 23:51:00,
2013-03-20 16:56:00,41.2,36.7,29.53,East,90,0.0,0.0,84,0.12,,---,0.58,VWS V14.01,2013-03-20 23:56:00,
2013-03-20 17:01:00,41.5,38.3,29.53,NE,45,0.0,0.0,88,0.12,,---,0.58,VWS V14.01,2013-03-21 00:01:00,
2013-03-20 17:06:00,41.5,38.3,29.53,East,90,0.0,0.0,88,0.12,,---,0.58,VWS V14.01,2013-03-21 00:06:00,
2013-03-20 17:11:00,43.2,41.8,29.53,East,90,0.9,0.9,95,0.12,,---,0.58,VWS V14.01,2013-03-21 00:11:00,
2013-03-20 17:17:00,44.2,43.4,29.53,South,180,3.8,3.8,97,0.12,,---,0.58,VWS V14.01,2013-03-21 00:17:00,
2013-03-20 17:22:00,44.6,43.5,29.53,North,0,1.6,1.6,96,0.12,,---,0.58,VWS V14.01,2013-03-21 00:22:00,
2013-03-20 17:27:00,44.6,43.5,29.53,North,0,1.6,1.6,96,0.12,,---,0.58,VWS V14.01,2013-03-21 00:27:00,
2013-03-20 17:32:00,44.6,41.6,29.53,East,90,4.0,4.0,89,0.12,,---,0.58,VWS V14.01,2013-03-21 00:32:00,
2013-03-20 17:37:00,44.4,40.5,29.53,East,90,2.5,2.5,86,0.12,,---,0.58,VWS V14.01,2013-03-21 00:37:00,
2013-03-20 17:42:00,44.2,39.4,29.50,East,90,1.6,1.6,83,0.12,,---,0.58,VWS V14.01,2013-03-21 00:42:00,
2013-03-20 17:47:00,44.1,39.5,29.50,NNW,338,2.5,2.5,84,0.08,,---,0.58,VWS V14.01,2013-03-21 00:47:00,
2013-03-20 17:52:00,44.2,40.0,29.50,North,0,2.7,2.7,85,0.04,,---,0.58,VWS V14.01,2013-03-21 00:52:00,
2013-03-20 17:57:00,44.2,40.3,29.53,NNW,338,2.0,2.0,86,0.04,,---,0.58,VWS V14.01,2013-03-21 00:57:00,
2013-03-20 18:02:00,44.4,40.5,29.53,North,0,0.0,0.0,86,0.00,,---,0.58,VWS V14.01,2013-03-21 01:02:00,
2013-03-20 18:07:00,44.6,40.7,29.53,SSE,158,0.0,0.0,86,0.00,,---,0.58,VWS V14.01,2013-03-21 01:07:00,
2013-03-20 18:12:00,44.2,39.4,29.56,SE,135,2.7,2.7,83,0.00,,---,0.58,VWS V14.01,2013-03-21 01:12:00,
2013-03-20 18:17:00,44.2,38.5,29.56,ENE,68,4.0,4.0,80,0.00,,---,0.58,VWS V14.01,2013-03-21 01:17:00,
2013-03-20 18:23:00,44.1,37.7,29.56,NNE,22,2.5,2.5,78,0.00,,---,0.58,VWS V14.01,2013-03-21 01:23:00,
2013-03-20 18:28:00,43.9,37.5,29.56,ENE,68,1.1,1.1,78,0.00,,---,0.58,VWS V14.01,2013-03-21 01:28:00,
2013-03-20 18:33:00,43.7,36.3,29.56,NNW,338,2.0,2.0,75,0.00,,---,0.58,VWS V14.01,2013-03-21 01:33:00,
2013-03-20 18:38:00,43.5,36.5,29.56,NNE,22,2.9,2.9,76,0.00,,---,0.58,VWS V14.01,2013-03-21 01:38:00,
2013-03-20 18:43:00,43.2,35.5,29.59,West,270,4.0,4.0,74,0.00,,---,0.58,VWS V14.01,2013-03-21 01:43:00,
2013-03-20 18:48:00,43.2,35.8,29.59,NNE,22,1.3,1.3,75,0.00,,---,0.58,VWS V14.01,2013-03-21 01:48:00,
2013-03-20 18:53:00,42.6,36.6,29.59,NE,45,0.0,0.0,79,0.00,,---,0.58,VWS V14.01,2013-03-21 01:53:00,
2013-03-20 18:58:00,42.3,35.2,29.59,NNE,22,1.6,1.6,76,0.00,,---,0.58,VWS V14.01,2013-03-21 01:58:00,
2013-03-20 19:03:00,42.1,35.7,29.59,NNW,338,2.7,2.7,78,0.00,,---,0.58,VWS V14.01,2013-03-21 02:03:00,
2013-03-20 19:08:00,41.7,35.7,29.59,ENE,68,2.0,2.0,79,0.00,,---,0.58,VWS V14.01,2013-03-21 02:08:00,
2013-03-20 19:13:00,41.4,34.4,29.56,East,90,0.0,0.0,76,0.00,,---,0.58,VWS V14.01,2013-03-21 02:13:00,
2013-03-20 19:18:00,41.2,34.8,29.56,NNE,22,2.7,2.7,78,0.00,,---,0.58,VWS V14.01,2013-03-21 02:18:00,
2013-03-20 19:23:00,41.4,34.0,29.56,East,90,0.9,0.9,75,0.00,,---,0.58,VWS V14.01,2013-03-21 02:23:00,
2013-03-20 19:28:00,41.4,33.4,29.59,North,0,3.1,3.1,73,0.00,,---,0.58,VWS V14.01,2013-03-21 02:28:00,
2013-03-20 19:33:00,41.2,34.2,29.59,ENE,68,0.0,0.0,76,0.00,,---,0.58,VWS V14.01,2013-03-21 02:33:00,
2013-03-20 19:39:00,41.0,32.3,29.59,East,90,0.0,0.0,71,0.00,,---,0.58,VWS V14.01,2013-03-21 02:39:00,
2013-03-20 19:44:00,41.0,33.4,29.62,NW,315,1.6,1.6,74,0.00,,---,0.58,VWS V14.01,2013-03-21 02:44:00,
2013-03-20 19:49:00,41.0,34.0,29.62,NNE,22,0.0,0.0,76,0.00,,---,0.58,VWS V14.01,2013-03-21 02:49:00,
2013-03-20 19:54:00,40.8,33.8,29.62,WSW,248,2.5,2.5,76,0.00,,---,0.58,VWS V14.01,2013-03-21 02:54:00,
2013-03-20 19:59:00,41.0,33.4,29.62,North,0,2.0,2.0,74,0.00,,---,0.58,VWS V14.01,2013-03-21 02:59:00,
2013-03-20 20:04:00,41.0,33.4,29.62,ESE,112,2.0,2.0,74,0.00,,---,0.58,VWS V14.01,2013-03-21 03:04:00,
2013-03-20 20:09:00,40.6,33.0,29.65,North,0,0.9,0.9,74,0.00,,---,0.58,VWS V14.01,2013-03-21 03:09:00,
2013-03-20 20:14:00,40.5,32.5,29.65,NE,45,1.3,1.3,73,0.00,,---,0.58,VWS V14.01,2013-03-21 03:14:00,
2013-03-20 20:19:00,40.5,32.8,29.65,NE,45,1.1,1.1,74,0.00,,---,0.58,VWS V14.01,2013-03-21 03:19:00,
2013-03-20 20:24:00,40.5,31.8,29.65,NNW,338,2.5,2.5,71,0.00,,---,0.58,VWS V14.01,2013-03-21 03:24:00,
2013-03-20 20:29:00,40.5,33.2,29.65,NNE,22,0.0,0.0,75,0.00,,---,0.58,VWS V14.01,2013-03-21 03:29:00,
2013-03-20 20:34:00,40.3,32.0,29.65,West,270,1.3,1.3,72,0.00,,---,0.58,VWS V14.01,2013-03-21 03:34:00,
2013-03-20 20:39:00,40.3,32.7,29.65,NNW,338,2.0,2.0,74,0.00,,---,0.58,VWS V14.01,2013-03-21 03:39:00,
2013-03-20 20:44:00,40.3,32.3,29.65,North,0,1.1,1.1,73,0.00,,---,0.58,VWS V14.01,2013-03-21 03:44:00,
2013-03-20 20:49:00,40.1,32.5,29.65,North,0,0.0,0.0,74,0.00,,---,0.58,VWS V14.01,2013-03-21 03:49:00,
2013-03-20 20:55:00,39.7,32.8,29.68,NNW,338,2.2,2.2,76,0.00,,---,0.58,VWS V14.01,2013-03-21 03:55:00,
2013-03-20 21:00:00,39.6,31.6,29.68,North,0,3.6,3.6,73,0.00,,---,0.58,VWS V14.01,2013-03-21 04:00:00,
2013-03-20 21:01:00,39.7,32.1,29.68,WNW,292,0.0,0.0,74,0.00,,---,0.58,VWS V14.01,2013-03-21 04:01:00,
2013-03-20 21:06:00,39.4,32.5,29.68,South,180,1.3,1.3,76,0.00,,---,0.58,VWS V14.01,2013-03-21 04:06:00,
2013-03-20 21:12:00,39.4,32.5,29.68,WNW,292,1.1,1.1,76,0.00,,---,0.58,VWS V14.01,2013-03-21 04:12:00,
2013-03-20 21:17:00,39.0,32.4,29.68,South,180,2.2,2.2,77,0.00,,---,0.58,VWS V14.01,2013-03-21 04:17:00,
2013-03-20 21:22:00,39.0,32.1,29.68,East,90,1.3,1.3,76,0.00,,---,0.58,VWS V14.01,2013-03-21 04:22:00,
2013-03-20 21:27:00,39.2,32.3,29.68,East,90,0.0,0.0,76,0.00,,---,0.58,VWS V14.01,2013-03-21 04:27:00,
2013-03-20 21:32:00,38.7,32.1,29.68,NNW,338,2.5,2.5,77,0.00,,---,0.58,VWS V14.01,2013-03-21 04:32:00,
2013-03-20 21:37:00,38.8,31.6,29.68,NNW,338,3.4,3.4,75,0.00,,---,0.58,VWS V14.01,2013-03-21 04:37:00,
2013-03-20 21:42:00,38.8,31.3,29.74,NW,315,2.5,2.5,74,0.00,,---,0.58,VWS V14.01,2013-03-21 04:42:00,
2013-03-20 21:47:00,38.8,31.9,29.74,NNE,22,1.6,1.6,76,0.00,,---,0.58,VWS V14.01,2013-03-21 04:47:00,
2013-03-20 21:52:00,38.7,30.4,29.74,North,0,3.6,3.6,72,0.00,,---,0.58,VWS V14.01,2013-03-21 04:52:00,
2013-03-20 21:58:00,38.7,31.8,29.68,North,0,3.6,3.6,76,0.00,,---,0.58,VWS V14.01,2013-03-21 04:58:00,
2013-03-20 22:03:00,38.5,31.6,29.68,NW,315,3.4,3.4,76,0.00,,---,0.58,VWS V14.01,2013-03-21 05:03:00,
2013-03-20 22:08:00,38.5,30.6,29.68,WNW,292,4.0,4.0,73,0.00,,---,0.58,VWS V14.01,2013-03-21 05:08:00,
2013-03-20 22:13:00,38.5,30.9,29.71,East,90,1.3,1.3,74,0.00,,---,0.58,VWS V14.01,2013-03-21 05:13:00,
2013-03-20 22:18:00,38.5,30.9,29.71,SE,135,2.2,2.2,74,0.00,,---,0.58,VWS V14.01,2013-03-21 05:18:00,
2013-03-20 22:23:00,38.5,30.9,29.71,NW,315,0.9,0.9,74,0.00,,---,0.58,VWS V14.01,2013-03-21 05:23:00,
2013-03-20 22:28:00,38.5,31.3,29.71,North,0,3.6,3.6,75,0.00,,---,0.58,VWS V14.01,2013-03-21 05:28:00,
2013-03-20 22:33:00,38.5,31.6,29.71,NNE,22,0.0,0.0,76,0.00,,---,0.58,VWS V14.01,2013-03-21 05:33:00,
2013-03-20 22:38:00,38.3,30.8,29.71,WNW,292,3.4,3.4,74,0.00,,---,0.58,VWS V14.01,2013-03-21 05:38:00,
2013-03-20 22:43:00,38.5,30.9,29.71,SE,135,3.8,3.8,74,0.00,,---,0.58,VWS V14.01,2013-03-21 05:43:00,
2013-03-20 22:49:00,38.5,31.3,29.71,SE,135,2.5,2.5,75,0.00,,---,0.58,VWS V14.01,2013-03-21 05:49:00,
2013-03-20 22:54:00,38.5,31.6,29.71,SSW,202,2.0,2.0,76,0.00,,---,0.58,VWS V14.01,2013-03-21 05:54:00,
2013-03-20 22:59:00,38.3,31.1,29.74,NNE,22,2.0,2.0,75,0.00,,---,0.58,VWS V14.01,2013-03-21 05:59:00,
2013-03-20 23:04:00,38.3,31.4,29.74,NNE,22,2.7,2.7,76,0.00,,---,0.58,VWS V14.01,2013-03-21 06:04:00,
2013-03-20 23:09:00,38.1,30.9,29.74,North,0,1.6,1.6,75,0.00,,---,0.58,VWS V14.01,2013-03-21 06:09:00,
2013-03-20 23:14:00,38.1,30.9,29.74,ESE,112,1.6,1.6,75,0.00,,---,0.58,VWS V14.01,2013-03-21 06:14:00,
2013-03-20 23:19:00,37.9,30.7,29.74,SE,135,2.9,2.9,75,0.00,,---,0.58,VWS V14.01,2013-03-21 06:19:00,
2013-03-20 23:24:00,37.9,31.1,29.74,NNW,338,1.3,1.3,76,0.00,,---,0.58,VWS V14.01,2013-03-21 06:24:00,
2013-03-20 23:29:00,37.6,30.4,29.76,ENE,68,2.7,2.7,75,0.00,,---,0.58,VWS V14.01,2013-03-21 06:29:00,
2013-03-20 23:34:00,37.8,30.6,29.76,North,0,2.9,2.9,75,0.00,,---,0.58,VWS V14.01,2013-03-21 06:34:00,
2013-03-20 23:39:00,37.6,29.7,29.76,NNE,22,4.0,4.0,73,0.00,,---,0.58,VWS V14.01,2013-03-21 06:39:00,
2013-03-20 23:44:00,37.6,30.4,29.76,ENE,68,2.5,2.5,75,0.00,,---,0.58,VWS V14.01,2013-03-21 06:44:00,
2013-03-20 23:49:00,37.4,30.2,29.76,NNW,338,6.3,6.3,75,0.00,,---,0.58,VWS V14.01,2013-03-21 06:49:00,
2013-03-20 23:54:00,37.2,30.4,29.76,NNE,22,2.2,2.2,76,0.00,,---,0.58,VWS V14.01,2013-03-21 06:54:00,
2013-03-20 23:59:00,36.9,30.6,29.76,NNW,338,2.2,2.2,78,0.00,,---,0.00,VWS V14.01,2013-03-21 06:59:00,